createdAt,value
2022-12-14T00:01:31.149Z,-5.00
2022-12-14T00:03:59.081Z,-5.00
2022-12-14T00:06:27.741Z,-5.00
2022-12-14T00:08:56.747Z,-5.00
2022-12-14T00:11:24.676Z,-5.00
2022-12-14T00:13:54.354Z,-5.20
2022-12-14T00:16:22.372Z,-5.20
2022-12-14T00:18:51.144Z,-5.20
2022-12-14T00:21:19.008Z,-5.20
2022-12-14T00:23:47.130Z,-5.20
2022-12-14T00:26:15.595Z,-5.10
2022-12-14T00:28:43.921Z,-5.00
2022-12-14T00:31:13.190Z,-5.10
2022-12-14T00:33:41.215Z,-4.90
2022-12-14T00:36:10.122Z,-4.90
2022-12-14T00:38:37.963Z,-4.90
2022-12-14T00:41:06.072Z,-4.80
2022-12-14T00:43:33.899Z,-4.80
2022-12-14T00:46:01.795Z,-4.80
2022-12-14T00:48:31.774Z,-4.70
2022-12-14T00:50:59.899Z,-4.90
2022-12-14T00:53:27.725Z,-4.90
2022-12-14T00:55:55.554Z,-3.40
2022-12-14T00:58:24.701Z,-4.30
2022-12-14T01:01:00.064Z,-4.60
2022-12-14T01:03:28.382Z,-4.80
2022-12-14T01:05:57.856Z,-4.50
2022-12-14T01:08:25.741Z,-3.50
2022-12-14T01:10:53.618Z,-4.10
2022-12-14T01:13:21.641Z,-4.10
2022-12-14T01:15:49.486Z,-4.20
2022-12-14T01:18:17.685Z,-4.40
2022-12-14T01:20:45.508Z,-4.70
2022-12-14T01:23:14.709Z,-4.70
2022-12-14T01:25:42.538Z,-4.60
2022-12-14T01:28:10.377Z,-4.50
2022-12-14T01:30:40.351Z,-4.30
2022-12-14T01:33:08.168Z,-4.40
2022-12-14T01:35:35.995Z,-4.50
2022-12-14T01:38:03.843Z,-4.60
2022-12-14T01:40:33.031Z,-4.70
2022-12-14T01:43:00.856Z,-4.60
2022-12-14T01:45:28.963Z,-4.50
2022-12-14T01:47:57.859Z,-4.50
2022-12-14T01:50:30.642Z,-4.40
2022-12-14T01:52:59.709Z,-4.30
2022-12-14T01:55:28.865Z,-4.50
2022-12-14T01:58:00.081Z,-4.50
2022-12-14T02:00:27.913Z,-4.60
2022-12-14T02:02:58.276Z,-4.50
2022-12-14T02:05:26.197Z,-4.50
2022-12-14T02:07:55.021Z,-4.40
2022-12-14T02:10:24.019Z,-4.30
2022-12-14T02:12:53.838Z,-4.50
2022-12-14T02:15:23.022Z,-4.40
2022-12-14T02:17:50.900Z,-4.60
2022-12-14T02:20:18.917Z,-4.50
2022-12-14T02:23:16.794Z,-4.30
2022-12-14T02:26:29.871Z,-4.30
2022-12-14T02:29:16.501Z,-4.30
2022-12-14T02:31:46.367Z,-4.30
2022-12-14T02:34:19.506Z,-4.40
2022-12-14T02:36:52.686Z,-4.40
2022-12-14T02:39:23.395Z,-4.40
2022-12-14T02:41:55.491Z,-4.40
2022-12-14T02:44:30.474Z,-4.30
2022-12-14T02:46:59.050Z,-4.30
2022-12-14T02:49:36.845Z,-4.20
2022-12-14T02:52:07.212Z,-4.40
2022-12-14T02:54:37.577Z,-4.50
2022-12-14T02:57:09.865Z,-4.50
2022-12-14T02:59:39.073Z,-4.60
2022-12-14T03:02:07.014Z,-4.60
2022-12-14T03:04:45.721Z,-4.60
2022-12-14T03:07:32.744Z,-4.70
2022-12-14T03:10:01.634Z,-4.50
2022-12-14T03:12:29.466Z,-4.50
2022-12-14T03:14:58.638Z,-4.60
2022-12-14T03:17:27.201Z,-4.60
2022-12-14T03:19:57.332Z,-4.40
2022-12-14T03:22:26.678Z,-4.40
2022-12-14T03:24:55.316Z,-4.50
2022-12-14T03:27:25.109Z,-4.40
2022-12-14T03:29:55.230Z,-4.40
2022-12-14T03:32:25.342Z,-4.30
2022-12-14T03:34:57.031Z,-4.50
2022-12-14T03:37:27.564Z,-4.50
2022-12-14T03:39:55.399Z,-4.40
2022-12-14T03:42:24.698Z,-4.30
2022-12-14T03:44:58.234Z,-4.40
2022-12-14T03:47:37.060Z,-4.40
2022-12-14T03:50:09.776Z,-4.30
2022-12-14T03:52:38.829Z,-4.40
2022-12-14T03:55:11.894Z,-4.30
2022-12-14T03:57:46.347Z,-4.30
2022-12-14T04:00:15.445Z,-4.30
2022-12-14T04:02:47.307Z,-4.30
2022-12-14T04:05:16.826Z,-4.30
2022-12-14T04:07:49.048Z,-4.30
2022-12-14T04:10:36.631Z,-4.20
2022-12-14T04:13:24.824Z,-4.40
2022-12-14T04:16:10.228Z,-4.00
2022-12-14T04:19:00.520Z,-4.10
2022-12-14T04:21:32.682Z,-3.90
2022-12-14T04:24:20.487Z,-4.00
2022-12-14T04:26:51.964Z,-4.00
2022-12-14T04:29:41.535Z,-4.10
2022-12-14T04:32:16.053Z,-4.10
2022-12-14T04:34:47.301Z,-4.10
2022-12-14T04:37:16.550Z,-4.00
2022-12-14T04:39:46.376Z,-4.00
2022-12-14T04:42:14.304Z,-3.90
2022-12-14T04:44:43.429Z,-3.90
2022-12-14T04:47:12.359Z,-3.90
2022-12-14T04:49:41.117Z,-4.00
2022-12-14T04:52:13.643Z,-3.90
2022-12-14T04:54:42.711Z,-4.00
2022-12-14T04:57:17.399Z,-4.00
2022-12-14T04:59:47.496Z,-4.00
2022-12-14T05:02:20.216Z,-3.90
2022-12-14T05:04:55.851Z,-3.90
2022-12-14T05:07:33.464Z,-3.80
2022-12-14T05:10:04.399Z,-3.80
2022-12-14T05:12:37.095Z,-3.70
2022-12-14T05:15:06.264Z,-3.70
2022-12-14T05:17:36.319Z,-3.70
2022-12-14T05:20:04.383Z,-3.70
2022-12-14T05:22:33.561Z,-3.60
2022-12-14T05:25:01.396Z,-3.60
2022-12-14T05:27:29.241Z,-3.60
2022-12-14T05:29:57.097Z,-3.70
2022-12-14T05:32:24.942Z,-3.60
2022-12-14T05:34:52.842Z,-3.50
2022-12-14T05:37:20.659Z,-3.50
2022-12-14T05:39:49.835Z,-3.50
2022-12-14T05:42:17.729Z,-3.40
2022-12-14T05:44:45.529Z,-3.40
2022-12-14T05:47:14.170Z,-3.30
2022-12-14T05:49:41.993Z,-3.40
2022-12-14T05:52:09.806Z,-3.30
2022-12-14T05:54:37.619Z,-3.30
2022-12-14T05:57:06.888Z,-3.40
2022-12-14T05:59:34.802Z,-3.30
2022-12-14T06:02:02.800Z,-3.20
2022-12-14T06:04:30.753Z,-3.10
2022-12-14T06:06:58.617Z,-3.20
2022-12-14T06:09:26.431Z,-3.10
2022-12-14T06:11:54.630Z,-3.10
2022-12-14T06:14:24.326Z,-3.00
2022-12-14T06:16:52.294Z,-3.00
2022-12-14T06:19:20.358Z,-3.00
2022-12-14T06:21:48.186Z,-3.00
2022-12-14T06:24:16.025Z,-3.00
2022-12-14T06:26:43.876Z,-2.90
2022-12-14T06:29:15.392Z,-2.80
2022-12-14T06:31:44.600Z,-2.70
2022-12-14T06:34:12.556Z,-2.70
2022-12-14T06:36:41.611Z,-2.60
2022-12-14T06:39:11.417Z,-2.70
2022-12-14T06:41:40.183Z,-2.60
2022-12-14T06:44:08.998Z,-2.60
2022-12-14T06:46:37.202Z,-2.60
2022-12-14T06:49:06.679Z,-2.50
2022-12-14T06:51:38.725Z,-2.40
2022-12-14T06:54:06.699Z,-2.50
2022-12-14T06:56:34.533Z,-2.40
2022-12-14T06:59:02.391Z,-2.30
2022-12-14T07:01:30.686Z,-2.30
2022-12-14T07:03:59.215Z,-2.30
2022-12-14T07:06:29.639Z,-2.30
2022-12-14T07:08:58.145Z,-2.30
2022-12-14T07:11:26.224Z,-2.20
2022-12-14T07:13:54.221Z,-2.20
2022-12-14T07:16:23.226Z,-2.10
2022-12-14T07:18:51.438Z,-2.10
2022-12-14T07:21:20.631Z,-2.10
2022-12-14T07:23:51.690Z,-2.10
2022-12-14T07:26:20.431Z,-2.10
2022-12-14T07:28:48.585Z,-2.10
2022-12-14T07:31:17.629Z,-2.00
2022-12-14T07:33:45.572Z,-2.00
2022-12-14T07:36:14.128Z,-1.90
2022-12-14T07:38:42.136Z,-1.90
2022-12-14T07:41:12.410Z,-1.90
2022-12-14T07:43:40.491Z,-1.90
2022-12-14T07:46:09.183Z,-1.90
2022-12-14T07:48:37.192Z,-1.90
2022-12-14T07:51:06.378Z,-1.90
2022-12-14T07:53:34.327Z,-1.80
2022-12-14T07:56:04.660Z,-1.80
2022-12-14T07:58:33.963Z,-1.70
2022-12-14T08:01:12.615Z,-1.80
2022-12-14T08:03:40.704Z,-1.80
2022-12-14T08:06:09.154Z,-1.80
2022-12-14T08:08:37.056Z,-1.80
2022-12-14T08:11:05.006Z,-1.80
2022-12-14T08:13:34.214Z,-1.80
2022-12-14T08:16:05.377Z,-1.80
2022-12-14T08:18:33.894Z,-1.70
2022-12-14T08:21:01.935Z,-1.60
2022-12-14T08:23:30.349Z,-1.60
2022-12-14T08:25:59.236Z,-1.50
2022-12-14T08:28:27.369Z,-1.50
2022-12-14T08:30:56.616Z,-1.50
2022-12-14T08:33:24.684Z,-1.50
2022-12-14T08:35:52.515Z,-1.50
2022-12-14T08:38:20.382Z,-1.40
2022-12-14T08:40:48.443Z,-1.40
2022-12-14T08:43:19.053Z,-1.10
2022-12-14T08:45:51.097Z,-1.40
2022-12-14T08:48:20.267Z,-1.30
2022-12-14T08:50:49.903Z,0.50
2022-12-14T08:53:18.162Z,-0.30
2022-12-14T08:55:46.077Z,-0.70
2022-12-14T08:58:13.966Z,-0.80
2022-12-14T09:00:41.809Z,-0.30
2022-12-14T09:03:09.847Z,0.10
2022-12-14T09:05:39.127Z,0.50
2022-12-14T09:08:07.015Z,0.40
2022-12-14T09:10:34.846Z,-0.30
2022-12-14T09:13:02.691Z,-0.70
2022-12-14T09:15:30.669Z,-0.70
2022-12-14T09:17:58.491Z,-0.60
2022-12-14T09:20:26.330Z,-0.60
2022-12-14T09:22:55.681Z,-0.60
2022-12-14T09:25:23.554Z,-0.60
2022-12-14T09:27:51.593Z,-0.40
2022-12-14T09:30:26.192Z,-0.20
2022-12-14T09:32:54.775Z,-0.10
2022-12-14T09:35:23.078Z,-0.20
2022-12-14T09:37:50.935Z,-0.20
2022-12-14T09:40:20.168Z,-0.10
2022-12-14T09:42:54.046Z,0.00
2022-12-14T09:45:24.120Z,0.10
2022-12-14T09:47:54.863Z,0.30
2022-12-14T09:50:22.944Z,0.50
2022-12-14T09:52:52.137Z,1.10
2022-12-14T09:55:23.959Z,1.20
2022-12-14T09:57:54.251Z,1.20
2022-12-14T10:00:22.698Z,1.00
2022-12-14T10:03:06.125Z,1.20
2022-12-14T10:05:45.897Z,1.30
2022-12-14T10:08:16.947Z,1.40
2022-12-14T10:10:48.772Z,1.10
2022-12-14T10:13:20.954Z,1.10
2022-12-14T10:15:51.846Z,1.20
2022-12-14T10:18:58.446Z,1.30
2022-12-14T10:21:22.914Z,1.30
2022-12-14T10:23:53.915Z,1.30
2022-12-14T10:26:24.714Z,1.50
2022-12-14T10:29:01.002Z,1.40
2022-12-14T10:31:32.969Z,1.70
2022-12-14T10:34:05.425Z,1.50
2022-12-14T10:36:36.505Z,1.40
2022-12-14T10:39:08.561Z,1.20
2022-12-14T10:41:40.569Z,1.10
2022-12-14T10:44:14.629Z,1.10
2022-12-14T10:46:45.710Z,1.10
2022-12-14T10:49:16.206Z,1.10
2022-12-14T10:51:46.847Z,1.10
2022-12-14T10:54:22.099Z,1.10
2022-12-14T10:56:51.518Z,1.20
2022-12-14T10:59:27.504Z,1.20
2022-12-14T11:01:58.669Z,1.30
2022-12-14T11:04:34.864Z,1.30
2022-12-14T11:07:03.796Z,1.30
2022-12-14T11:09:32.764Z,1.40
2022-12-14T11:12:03.815Z,1.30
2022-12-14T11:14:31.890Z,1.30
2022-12-14T11:16:59.853Z,1.30
2022-12-14T11:19:28.169Z,1.40
2022-12-14T11:22:18.477Z,1.40
2022-12-14T11:24:49.902Z,1.50
2022-12-14T11:27:21.005Z,1.70
2022-12-14T11:29:49.253Z,1.80
2022-12-14T11:32:21.711Z,2.00
2022-12-14T11:34:58.350Z,2.20
2022-12-14T11:37:27.177Z,2.30
2022-12-14T11:39:56.309Z,2.30
2022-12-14T11:42:25.788Z,2.20
2022-12-14T11:44:53.709Z,2.10
2022-12-14T11:47:21.908Z,2.20
2022-12-14T11:49:50.782Z,2.10
2022-12-14T11:52:19.755Z,2.00
2022-12-14T11:54:49.784Z,1.80
2022-12-14T11:57:24.089Z,1.70
2022-12-14T11:59:54.142Z,1.80
2022-12-14T12:02:26.907Z,1.80
2022-12-14T12:04:56.723Z,1.80
2022-12-14T12:07:28.770Z,1.80
2022-12-14T12:09:57.204Z,1.80
2022-12-14T12:12:25.068Z,1.90
2022-12-14T12:14:58.747Z,1.80
2022-12-14T12:17:39.530Z,1.90
2022-12-14T12:20:23.111Z,1.90
2022-12-14T12:22:52.636Z,1.90
2022-12-14T12:25:33.639Z,1.70
2022-12-14T12:28:07.476Z,1.70
2022-12-14T12:30:37.678Z,1.70
2022-12-14T12:33:17.557Z,1.70
2022-12-14T12:35:49.052Z,1.80
2022-12-14T12:38:20.929Z,1.90
2022-12-14T12:40:55.988Z,2.10
2022-12-14T12:43:26.479Z,2.10
2022-12-14T12:45:57.634Z,2.20
2022-12-14T12:48:29.072Z,2.30
2022-12-14T12:51:00.487Z,2.30
2022-12-14T12:53:30.280Z,2.30
2022-12-14T12:56:00.151Z,2.40
2022-12-14T12:58:30.009Z,2.40
2022-12-14T13:01:01.788Z,2.50
2022-12-14T13:03:37.280Z,2.50
2022-12-14T13:06:09.379Z,2.60
2022-12-14T13:08:39.144Z,2.50
2022-12-14T13:11:26.106Z,2.50
2022-12-14T13:13:56.471Z,2.60
2022-12-14T13:16:28.245Z,2.80
2022-12-14T13:19:19.037Z,2.90
2022-12-14T13:21:51.244Z,2.80
2022-12-14T13:24:20.357Z,2.80
2022-12-14T13:27:18.049Z,3.00
2022-12-14T13:29:54.471Z,3.00
2022-12-14T13:32:36.965Z,3.00
2022-12-14T13:35:08.229Z,2.90
2022-12-14T13:37:52.114Z,3.00
2022-12-14T13:40:47.878Z,3.00
2022-12-14T13:43:29.654Z,3.10
2022-12-14T13:45:57.535Z,3.10
2022-12-14T13:48:28.323Z,3.00
2022-12-14T13:51:01.844Z,2.90
2022-12-14T13:53:31.454Z,3.00
2022-12-14T13:55:59.598Z,2.80
2022-12-14T13:58:36.092Z,2.80
2022-12-14T14:01:07.481Z,2.90
2022-12-14T14:03:47.658Z,2.80
2022-12-14T14:06:37.056Z,2.90
2022-12-14T14:10:01.652Z,2.80
2022-12-14T14:12:40.232Z,2.80
2022-12-14T14:15:29.739Z,2.90
2022-12-14T14:18:03.756Z,2.80
2022-12-14T14:20:37.406Z,2.90
2022-12-14T14:23:36.421Z,2.80
2022-12-14T14:26:23.097Z,2.70
2022-12-14T14:29:22.209Z,2.70
2022-12-14T14:31:52.528Z,2.50
2022-12-14T14:34:23.605Z,2.40
2022-12-14T14:36:52.812Z,2.30
2022-12-14T14:42:22.730Z,2.30
2022-12-14T14:44:51.689Z,2.30
2022-12-14T14:47:23.969Z,2.20
2022-12-14T14:49:53.517Z,2.30
2022-12-14T14:53:00.810Z,2.30
2022-12-14T14:55:55.723Z,2.30
2022-12-14T14:58:36.061Z,2.30
2022-12-14T15:01:09.988Z,2.20
2022-12-14T15:03:46.727Z,2.20
2022-12-14T15:06:15.590Z,2.20
2022-12-14T15:08:47.461Z,2.10
2022-12-14T15:11:17.226Z,2.10
2022-12-14T15:13:48.041Z,2.20
2022-12-14T15:16:25.329Z,2.20
2022-12-14T15:18:53.288Z,2.30
2022-12-14T15:21:21.149Z,2.20
2022-12-14T15:23:51.230Z,2.20
2022-12-14T15:26:20.836Z,2.10
2022-12-14T15:28:50.358Z,2.10
2022-12-14T15:31:18.541Z,2.00
2022-12-14T15:33:46.552Z,2.00
2022-12-14T15:36:16.617Z,2.00
2022-12-14T15:38:53.215Z,2.00
2022-12-14T15:41:22.366Z,1.90
2022-12-14T15:43:53.746Z,2.00
2022-12-14T15:46:28.267Z,2.00
2022-12-14T15:48:57.109Z,2.10
2022-12-14T15:51:26.316Z,2.00
2022-12-14T15:53:55.595Z,2.00
2022-12-14T15:56:26.742Z,2.00
2022-12-14T15:58:54.609Z,1.90
2022-12-14T16:01:24.169Z,1.90
2022-12-14T16:03:54.087Z,2.00
2022-12-14T16:06:22.133Z,2.10
2022-12-14T16:08:52.856Z,2.20
2022-12-14T16:11:24.260Z,2.10
2022-12-14T16:13:52.161Z,2.10
2022-12-14T16:16:20.057Z,2.00
2022-12-14T16:18:50.631Z,2.00
2022-12-14T16:21:27.629Z,2.00
2022-12-14T16:23:56.373Z,2.00
2022-12-14T16:26:27.051Z,2.00
2022-12-14T16:29:08.849Z,2.10
2022-12-14T16:31:37.053Z,2.20
2022-12-14T16:34:09.640Z,2.20
2022-12-14T16:36:37.941Z,2.20
2022-12-14T16:39:06.726Z,2.20
2022-12-14T16:41:37.111Z,2.20
2022-12-14T16:44:05.912Z,2.20
2022-12-14T16:46:33.840Z,2.20
2022-12-14T16:49:21.823Z,2.20
2022-12-14T16:52:07.390Z,2.20
2022-12-14T16:54:35.750Z,2.20
2022-12-14T16:57:06.452Z,2.20
2022-12-14T16:59:40.340Z,2.20
2022-12-14T17:02:26.306Z,2.30
2022-12-14T17:04:54.340Z,2.30
2022-12-14T17:07:23.958Z,2.30
2022-12-14T17:09:51.811Z,2.20
2022-12-14T17:12:21.016Z,2.20
2022-12-14T17:14:50.208Z,2.30
2022-12-14T17:17:22.817Z,2.20
2022-12-14T17:19:50.727Z,2.20
2022-12-14T17:22:21.059Z,2.30
2022-12-14T17:24:48.933Z,2.30
2022-12-14T17:27:17.379Z,2.30
2022-12-14T17:29:46.666Z,2.30
2022-12-14T17:32:15.787Z,2.30
2022-12-14T17:34:45.382Z,2.30
2022-12-14T17:37:15.875Z,2.30
2022-12-14T17:39:43.718Z,2.30
2022-12-14T17:42:11.822Z,2.30
2022-12-14T17:44:40.194Z,2.60
2022-12-14T17:47:12.175Z,2.80
2022-12-14T17:49:41.463Z,3.00
2022-12-14T17:52:13.253Z,2.70
2022-12-14T17:54:41.154Z,2.60
2022-12-14T17:57:11.829Z,2.60
2022-12-14T17:59:40.898Z,2.40
2022-12-14T18:02:33.292Z,2.40
2022-12-14T18:05:35.217Z,2.40
2022-12-14T18:08:03.072Z,2.30
2022-12-14T18:10:30.957Z,2.30
2022-12-14T18:16:42.837Z,2.50
2022-12-14T18:19:12.149Z,2.40
2022-12-14T18:21:40.002Z,2.50
2022-12-14T18:24:11.760Z,2.60
2022-12-14T18:26:39.950Z,2.60
2022-12-14T18:29:08.106Z,2.40
2022-12-14T18:31:37.654Z,2.40
2022-12-14T18:34:05.646Z,2.50
2022-12-14T18:36:34.884Z,2.50
2022-12-14T18:39:02.836Z,2.40
2022-12-14T18:41:31.151Z,2.40
2022-12-14T18:44:00.463Z,2.40
2022-12-14T18:46:28.529Z,2.40
2022-12-14T18:48:56.540Z,2.30
2022-12-14T18:51:26.961Z,2.30
2022-12-14T18:53:56.803Z,2.30
2022-12-14T18:56:25.379Z,2.40
2022-12-14T18:58:53.327Z,2.30
2022-12-14T19:01:22.769Z,2.40
2022-12-14T19:03:51.171Z,2.40
2022-12-14T19:06:43.652Z,2.40
2022-12-14T19:09:09.118Z,2.40
2022-12-14T19:11:38.665Z,2.40
2022-12-14T19:14:06.889Z,2.40
2022-12-14T19:16:34.891Z,2.30
2022-12-14T19:19:02.784Z,2.30
2022-12-14T19:21:31.501Z,2.40
2022-12-14T19:24:00.134Z,2.50
2022-12-14T19:26:29.443Z,2.50
2022-12-14T19:28:57.385Z,2.50
2022-12-14T19:31:25.345Z,2.50
2022-12-14T19:33:53.738Z,2.40
2022-12-14T19:36:21.685Z,2.40
2022-12-14T19:38:49.803Z,2.50
2022-12-14T19:41:20.248Z,2.50
2022-12-14T19:43:49.836Z,2.50
2022-12-14T19:46:18.343Z,2.50
2022-12-14T19:48:46.361Z,2.50
2022-12-14T19:51:14.392Z,2.50
2022-12-14T19:53:43.647Z,2.50
2022-12-14T19:56:13.260Z,2.50
2022-12-14T19:58:41.186Z,2.50
2022-12-14T20:04:57.392Z,2.40
2022-12-14T20:07:25.479Z,2.40
2022-12-14T20:09:53.368Z,2.60
2022-12-14T20:12:21.231Z,2.40
2022-12-14T20:14:56.045Z,2.40
2022-12-14T20:17:29.849Z,2.50
2022-12-14T20:23:40.989Z,2.50
2022-12-14T20:32:34.355Z,2.70
2022-12-14T20:35:02.185Z,2.70
2022-12-14T20:37:30.028Z,2.60
2022-12-14T20:39:59.174Z,2.50
2022-12-14T20:42:27.084Z,2.50
2022-12-14T20:44:54.897Z,2.60
2022-12-14T20:47:22.701Z,2.60
2022-12-14T20:49:51.570Z,2.60
2022-12-14T20:52:19.437Z,2.60
2022-12-14T20:54:47.226Z,2.60
2022-12-14T20:57:16.417Z,2.60
2022-12-14T20:59:44.196Z,2.60
2022-12-14T21:02:14.545Z,2.60
2022-12-14T21:04:42.461Z,2.60
2022-12-14T21:07:10.290Z,2.60
2022-12-14T21:09:38.223Z,2.60
2022-12-14T21:12:24.103Z,2.70
2022-12-14T21:14:53.823Z,2.60
2022-12-14T21:17:22.360Z,2.60
2022-12-14T21:19:50.157Z,2.60
2022-12-14T21:22:19.325Z,2.70
2022-12-14T21:25:04.799Z,2.70
2022-12-14T21:27:33.619Z,2.60
2022-12-14T21:30:03.301Z,2.70
2022-12-14T21:32:31.155Z,2.70
2022-12-14T21:34:58.999Z,2.60
2022-12-14T21:37:27.246Z,2.50
2022-12-14T21:39:55.874Z,2.50
2022-12-14T21:42:22.965Z,2.50
2022-12-14T21:44:51.770Z,2.60
2022-12-14T21:47:21.631Z,2.60
2022-12-14T21:49:49.559Z,2.60
2022-12-14T21:52:18.602Z,2.50
2022-12-14T21:54:46.533Z,2.50
2022-12-14T21:57:32.545Z,2.50
2022-12-14T22:00:00.382Z,2.50
2022-12-14T22:02:29.792Z,2.70
2022-12-14T22:04:57.791Z,2.60
2022-12-14T22:07:26.616Z,2.60
2022-12-14T22:09:54.458Z,2.60
2022-12-14T22:12:22.295Z,2.60
2022-12-14T22:14:50.280Z,2.50
2022-12-14T22:17:18.296Z,2.50
2022-12-14T22:19:48.848Z,2.50
2022-12-14T22:22:16.905Z,2.50
2022-12-14T22:24:45.077Z,2.60
2022-12-14T22:27:13.597Z,2.50
2022-12-14T22:29:41.483Z,2.50
2022-12-14T22:32:10.035Z,2.40
2022-12-14T22:34:37.987Z,2.40
2022-12-14T22:37:07.219Z,2.50
2022-12-14T22:39:35.129Z,2.60
2022-12-14T22:42:02.990Z,2.60
2022-12-14T22:44:31.036Z,2.60
2022-12-14T22:46:58.998Z,2.50
2022-12-14T22:49:26.933Z,2.50
2022-12-14T22:51:54.799Z,2.60
2022-12-14T22:54:25.127Z,2.50
2022-12-14T22:56:53.898Z,2.40
2022-12-14T22:59:23.100Z,2.40
2022-12-14T23:01:51.059Z,2.50
2022-12-14T23:04:19.155Z,2.40
2022-12-14T23:06:47.145Z,2.40
2022-12-14T23:09:32.624Z,2.40
2022-12-14T23:12:21.813Z,2.50
2022-12-14T23:15:07.760Z,2.40
2022-12-14T23:17:53.342Z,2.50
2022-12-14T23:20:38.849Z,2.50
2022-12-14T23:23:24.800Z,2.50
2022-12-14T23:26:10.162Z,2.40
2022-12-14T23:28:57.129Z,2.40
2022-12-14T23:31:42.651Z,2.40
2022-12-14T23:34:28.116Z,2.40
2022-12-14T23:37:18.138Z,2.40
2022-12-14T23:40:05.617Z,2.40
2022-12-14T23:42:51.021Z,2.40
2022-12-14T23:45:37.907Z,2.50
2022-12-14T23:48:23.793Z,2.50
2022-12-14T23:51:09.294Z,2.30
2022-12-14T23:53:54.800Z,2.40
2022-12-14T23:56:42.912Z,2.40
2022-12-14T23:59:32.380Z,2.40
